Time;durP1;ratioP1;P1;durP2;ratioP2;P2;SDS_P1;SDS_P2;PMS_P1;PMS_P2;Temp;Humidity;BMP_temperature;BMP_pressure;BME280_temperature;BME280_humidity;BME280_pressure;Samples;Min_cycle;Max_cycle;Signal;HPM_P1;HPM_P2
2023/12/03 00:02:04;;;;;;;133.25;38.05;;;;;;;;;;5026597;28;20080;-76
2023/12/03 00:04:30;;;;;;;133.15;37.08;;;;;;;;;;5029826;28;20049;-75
2023/12/03 00:06:56;;;;;;;128.63;37.67;;;;;;;;;;5028220;28;20037;-75
2023/12/03 00:09:23;;;;;;;128.35;37.97;;;;;;;;;;5027058;28;20502;-75
2023/12/03 00:11:49;;;;;;;131.85;39.28;;;;;;;;;;5010252;28;20025;-76
2023/12/03 00:14:15;;;;;;;136.38;39.60;;;;;;;;;;5029253;28;20033;-76
2023/12/03 00:16:41;;;;;;;127.68;38.15;;;;;;;;;;5029570;28;20045;-76
2023/12/03 00:19:07;;;;;;;130.63;39.08;;;;;;;;;;5028578;28;20061;-76
2023/12/03 00:21:33;;;;;;;119.47;38.08;;;;;;;;;;5029404;28;20060;-75
2023/12/03 00:23:59;;;;;;;125.22;35.15;;;;;;;;;;5028526;28;20065;-78
2023/12/03 00:26:26;;;;;;;130.43;37.83;;;;;;;;;;5027716;28;20038;-75
2023/12/03 00:28:52;;;;;;;124.55;35.90;;;;;;;;;;5008861;28;20467;-75
2023/12/03 00:31:18;;;;;;;127.65;37.95;;;;;;;;;;5019054;28;20403;-75
2023/12/03 00:33:44;;;;;;;127.88;39.33;;;;;;;;;;5006905;28;20041;-75
2023/12/03 00:36:11;;;;;;;126.55;37.70;;;;;;;;;;5008959;28;20041;-75
2023/12/03 00:38:37;;;;;;;129.43;41.28;;;;;;;;;;5008777;28;20166;-75
2023/12/03 00:41:03;;;;;;;128.98;40.75;;;;;;;;;;5023239;28;20060;-76
2023/12/03 00:43:29;;;;;;;133.38;39.05;;;;;;;;;;5008043;28;20026;-75
2023/12/03 00:45:57;;;;;;;135.55;40.38;;;;;;;;;;5007257;28;20030;-75
2023/12/03 00:48:23;;;;;;;151.05;41.63;;;;;;;;;;5022256;28;20081;-76
2023/12/03 00:50:49;;;;;;;150.10;42.45;;;;;;;;;;5007841;28;20041;-76
2023/12/03 00:53:16;;;;;;;156.20;42.33;;;;;;;;;;5007660;28;20129;-75
2023/12/03 00:55:42;;;;;;;147.00;40.25;;;;;;;;;;5006892;28;20053;-75
2023/12/03 00:58:08;;;;;;;135.30;39.50;;;;;;;;;;5009674;28;20033;-75
2023/12/03 01:00:34;;;;;;;150.40;43.25;;;;;;;;;;5004282;28;20034;-75
2023/12/03 01:03:00;;;;;;;157.20;44.55;;;;;;;;;;5009205;28;20045;-75
2023/12/03 01:05:26;;;;;;;140.90;38.50;;;;;;;;;;5007275;28;20517;-76
2023/12/03 01:07:52;;;;;;;146.30;42.60;;;;;;;;;;5008863;28;20696;-75
2023/12/03 01:10:18;;;;;;;147.23;41.35;;;;;;;;;;5006569;28;20033;-76
2023/12/03 01:12:44;;;;;;;155.23;42.45;;;;;;;;;;5008729;28;20040;-76
2023/12/03 01:15:11;;;;;;;167.45;45.10;;;;;;;;;;5007806;28;20677;-76
2023/12/03 01:17:37;;;;;;;148.48;41.35;;;;;;;;;;5024538;28;20061;-74
2023/12/03 01:20:04;;;;;;;148.40;44.65;;;;;;;;;;5006973;28;20026;-75
2023/12/03 01:22:30;;;;;;;153.07;43.08;;;;;;;;;;5007614;28;20148;-75
2023/12/03 01:24:56;;;;;;;150.63;45.42;;;;;;;;;;5009838;28;20040;-75
2023/12/03 01:27:23;;;;;;;163.68;47.22;;;;;;;;;;5022730;28;20038;-75
2023/12/03 01:29:49;;;;;;;166.07;46.35;;;;;;;;;;5007602;28;20081;-75
2023/12/03 01:32:15;;;;;;;171.85;45.03;;;;;;;;;;5020168;28;20052;-75
2023/12/03 01:34:41;;;;;;;169.20;46.22;;;;;;;;;;5027276;28;20037;-76
2023/12/03 01:37:07;;;;;;;181.68;45.13;;;;;;;;;;4993614;28;20374;-75
2023/12/03 01:39:34;;;;;;;172.93;45.28;;;;;;;;;;5025241;28;20875;-75
2023/12/03 01:42:01;;;;;;;176.25;48.50;;;;;;;;;;5028705;28;20080;-75
2023/12/03 01:44:27;;;;;;;179.23;49.53;;;;;;;;;;5026231;28;20045;-75
2023/12/03 01:46:53;;;;;;;184.18;48.90;;;;;;;;;;5027992;28;20041;-75
2023/12/03 01:49:22;;;;;;;167.75;48.40;;;;;;;;;;5030622;28;20056;-75
2023/12/03 01:51:49;;;;;;;167.55;48.15;;;;;;;;;;5028187;28;20064;-75
2023/12/03 01:54:15;;;;;;;170.77;47.45;;;;;;;;;;5030619;28;20041;-75
2023/12/03 01:56:41;;;;;;;167.55;49.50;;;;;;;;;;5031411;28;20087;-76
2023/12/03 01:59:07;;;;;;;174.88;50.03;;;;;;;;;;5030277;28;20043;-75
2023/12/03 02:01:33;;;;;;;168.20;51.38;;;;;;;;;;5031750;28;20057;-75
2023/12/03 02:03:59;;;;;;;169.85;50.00;;;;;;;;;;5014196;28;20513;-75
2023/12/03 02:06:26;;;;;;;165.95;49.78;;;;;;;;;;5030231;28;20045;-75
2023/12/03 02:08:53;;;;;;;155.98;49.97;;;;;;;;;;5030265;28;20037;-76
2023/12/03 02:11:19;;;;;;;155.63;48.55;;;;;;;;;;5031518;28;20025;-76
2023/12/03 02:13:47;;;;;;;169.27;50.70;;;;;;;;;;5031214;28;20032;-76
2023/12/03 02:16:13;;;;;;;145.38;47.38;;;;;;;;;;5013775;28;20025;-76
2023/12/03 02:18:39;;;;;;;144.50;48.00;;;;;;;;;;5030376;28;20060;-75
2023/12/03 02:21:05;;;;;;;125.05;45.17;;;;;;;;;;5030575;28;20026;-75
2023/12/03 02:23:32;;;;;;;145.50;47.63;;;;;;;;;;5031657;28;20048;-75
2023/12/03 02:25:59;;;;;;;138.13;48.08;;;;;;;;;;5031188;28;20036;-76
2023/12/03 02:28:26;;;;;;;134.35;47.10;;;;;;;;;;5030260;28;20067;-75
2023/12/03 02:30:52;;;;;;;136.65;48.05;;;;;;;;;;5029959;28;20037;-75
2023/12/03 02:33:18;;;;;;;145.30;48.05;;;;;;;;;;5031301;28;20045;-75
2023/12/03 02:35:44;;;;;;;131.25;46.90;;;;;;;;;;5030881;28;20069;-75
2023/12/03 02:38:10;;;;;;;139.98;47.33;;;;;;;;;;5014157;28;20033;-75
2023/12/03 02:40:39;;;;;;;136.63;45.47;;;;;;;;;;5028314;28;20026;-75
2023/12/03 02:43:05;;;;;;;120.43;45.22;;;;;;;;;;5031481;28;20091;-76
2023/12/03 02:45:31;;;;;;;129.13;48.10;;;;;;;;;;5029708;28;20033;-76
2023/12/03 02:47:57;;;;;;;130.40;48.58;;;;;;;;;;5031408;28;20043;-76
2023/12/03 02:50:23;;;;;;;137.90;49.75;;;;;;;;;;5031909;28;20033;-76
2023/12/03 02:52:49;;;;;;;137.80;48.83;;;;;;;;;;5013792;28;20033;-75
2023/12/03 02:55:15;;;;;;;136.27;49.00;;;;;;;;;;5030708;28;20021;-75
2023/12/03 02:57:41;;;;;;;126.70;49.70;;;;;;;;;;5031231;28;20072;-75
2023/12/03 03:00:08;;;;;;;140.95;50.20;;;;;;;;;;5029387;28;20029;-75
2023/12/03 03:02:34;;;;;;;122.15;48.85;;;;;;;;;;5030220;28;20029;-75
2023/12/03 03:05:00;;;;;;;130.27;50.78;;;;;;;;;;5030203;28;20038;-75
2023/12/03 03:07:27;;;;;;;130.77;52.17;;;;;;;;;;5013236;28;20022;-74
2023/12/03 03:09:53;;;;;;;139.55;55.20;;;;;;;;;;5029105;28;20095;-74
2023/12/03 03:12:19;;;;;;;145.05;56.83;;;;;;;;;;5030683;28;20509;-75
2023/12/03 03:14:45;;;;;;;142.43;58.60;;;;;;;;;;5012252;28;20034;-75
2023/12/03 03:17:12;;;;;;;150.55;61.85;;;;;;;;;;5030099;28;20047;-75
2023/12/03 03:19:38;;;;;;;139.23;60.05;;;;;;;;;;5010818;28;20099;-76
2023/12/03 03:22:04;;;;;;;143.40;60.67;;;;;;;;;;5030631;28;20037;-75
2023/12/03 03:24:30;;;;;;;138.05;62.92;;;;;;;;;;5028448;28;20068;-75
2023/12/03 03:26:56;;;;;;;139.52;63.35;;;;;;;;;;5030275;28;20108;-75
2023/12/03 03:29:22;;;;;;;144.45;64.90;;;;;;;;;;5027189;28;20029;-75
2023/12/03 03:31:48;;;;;;;135.43;65.10;;;;;;;;;;5029831;28;20406;-75
2023/12/03 03:34:15;;;;;;;121.25;59.72;;;;;;;;;;5027279;28;20072;-75
2023/12/03 03:36:41;;;;;;;125.22;60.28;;;;;;;;;;5012273;28;20110;-76
2023/12/03 03:39:07;;;;;;;115.68;59.08;;;;;;;;;;5025617;28;20086;-75
2023/12/03 03:41:33;;;;;;;119.18;60.22;;;;;;;;;;5012075;28;20037;-75
2023/12/03 03:43:59;;;;;;;120.10;60.25;;;;;;;;;;5029229;28;20029;-76
2023/12/03 03:46:25;;;;;;;122.65;58.30;;;;;;;;;;5026976;28;20033;-76
2023/12/03 03:48:51;;;;;;;114.57;58.58;;;;;;;;;;5009187;28;20037;-75
2023/12/03 03:51:17;;;;;;;124.28;61.50;;;;;;;;;;5024660;28;20041;-75
2023/12/03 03:53:43;;;;;;;125.93;59.22;;;;;;;;;;5030496;28;20053;-75
2023/12/03 03:56:11;;;;;;;118.47;58.20;;;;;;;;;;5028435;28;20045;-75
2023/12/03 03:58:37;;;;;;;121.97;57.58;;;;;;;;;;5031289;28;20083;-75
2023/12/03 04:01:04;;;;;;;116.50;57.38;;;;;;;;;;5029156;28;20560;-75
2023/12/03 04:03:31;;;;;;;109.65;56.80;;;;;;;;;;5011390;28;20054;-75
2023/12/03 04:06:00;;;;;;;112.00;55.75;;;;;;;;;;5030004;28;20445;-75
2023/12/03 04:08:26;;;;;;;116.65;56.20;;;;;;;;;;5027805;28;20460;-72
2023/12/03 04:10:52;;;;;;;118.85;54.15;;;;;;;;;;5029587;28;20032;-75
2023/12/03 04:13:18;;;;;;;113.30;55.50;;;;;;;;;;5026761;28;20033;-75
2023/12/03 04:15:44;;;;;;;114.85;54.80;;;;;;;;;;5009904;28;20060;-75
2023/12/03 04:18:10;;;;;;;119.38;55.92;;;;;;;;;;5011687;28;20563;-75
2023/12/03 04:20:38;;;;;;;122.65;58.67;;;;;;;;;;5020662;28;20064;-76
2023/12/03 04:23:04;;;;;;;123.45;58.70;;;;;;;;;;5010204;28;20037;-75
2023/12/03 04:25:30;;;;;;;126.43;56.35;;;;;;;;;;5027777;28;20021;-76
2023/12/03 04:27:57;;;;;;;123.55;56.88;;;;;;;;;;5029092;28;20060;-75
2023/12/03 04:30:23;;;;;;;131.50;57.65;;;;;;;;;;5027271;28;20032;-75
2023/12/03 04:32:49;;;;;;;123.60;56.90;;;;;;;;;;5029239;28;20120;-75
2023/12/03 04:35:16;;;;;;;144.40;60.92;;;;;;;;;;5024826;28;20081;-74
2023/12/03 04:37:42;;;;;;;140.52;59.28;;;;;;;;;;5028664;28;20042;-75
2023/12/03 04:40:09;;;;;;;138.65;57.65;;;;;;;;;;5028466;28;20375;-75
2023/12/03 04:42:36;;;;;;;135.82;58.42;;;;;;;;;;5011303;28;20105;-75
2023/12/03 04:45:02;;;;;;;142.82;60.42;;;;;;;;;;5027242;28;20087;-75
2023/12/03 04:47:29;;;;;;;143.40;59.40;;;;;;;;;;5027469;28;20064;-75
2023/12/03 04:49:55;;;;;;;149.40;60.78;;;;;;;;;;5008965;28;20025;-74
2023/12/03 04:52:21;;;;;;;140.70;59.20;;;;;;;;;;5028493;28;20034;-75
2023/12/03 04:54:47;;;;;;;138.02;56.55;;;;;;;;;;5027860;28;20096;-76
2023/12/03 04:57:13;;;;;;;136.68;56.58;;;;;;;;;;5012416;28;20087;-76
2023/12/03 04:59:40;;;;;;;129.82;55.58;;;;;;;;;;5026665;28;20052;-74
2023/12/03 05:02:06;;;;;;;138.18;56.60;;;;;;;;;;5028279;28;20039;-75
2023/12/03 05:04:32;;;;;;;146.07;57.28;;;;;;;;;;5009775;28;20505;-76
2023/12/03 05:06:58;;;;;;;129.48;55.63;;;;;;;;;;5010016;28;20029;-76
2023/12/03 05:09:24;;;;;;;136.68;58.50;;;;;;;;;;5027028;28;20056;-76
2023/12/03 05:11:50;;;;;;;153.50;59.58;;;;;;;;;;5028619;28;20403;-75
2023/12/03 05:14:16;;;;;;;146.02;57.67;;;;;;;;;;5027677;28;20044;-75
2023/12/03 05:16:42;;;;;;;152.30;60.38;;;;;;;;;;5028711;28;20033;-75
2023/12/03 05:19:08;;;;;;;161.20;60.65;;;;;;;;;;5024206;28;20144;-76
2023/12/03 05:21:35;;;;;;;162.82;59.83;;;;;;;;;;5028299;28;20026;-76
2023/12/03 05:24:01;;;;;;;148.50;57.40;;;;;;;;;;5009965;28;20527;-76
2023/12/03 05:26:27;;;;;;;145.73;56.97;;;;;;;;;;5024916;28;20030;-75
2023/12/03 05:28:54;;;;;;;146.82;58.53;;;;;;;;;;5009455;28;20145;-75
2023/12/03 05:31:20;;;;;;;157.23;58.60;;;;;;;;;;5023738;28;20053;-75
2023/12/03 05:33:46;;;;;;;145.57;58.45;;;;;;;;;;5023434;28;20026;-75
2023/12/03 05:36:23;;;;;;;155.65;56.88;;;;;;;;;;5024198;28;20071;-75
2023/12/03 05:38:49;;;;;;;152.70;58.33;;;;;;;;;;5018483;28;21033;-76
2023/12/03 05:41:18;;;;;;;157.52;59.28;;;;;;;;;;5026600;28;20124;-75
2023/12/03 05:43:45;;;;;;;164.50;59.35;;;;;;;;;;5027791;28;20025;-75
2023/12/03 05:46:11;;;;;;;162.00;59.58;;;;;;;;;;5026741;28;20045;-76
2023/12/03 05:48:37;;;;;;;165.80;61.72;;;;;;;;;;5024943;28;20059;-75
2023/12/03 05:51:08;;;;;;;159.40;57.33;;;;;;;;;;5026322;28;20036;-75
2023/12/03 05:53:34;;;;;;;156.63;57.13;;;;;;;;;;5027368;28;20021;-75
2023/12/03 05:56:00;;;;;;;165.25;58.42;;;;;;;;;;5023604;28;20021;-74
2023/12/03 05:58:26;;;;;;;169.20;58.17;;;;;;;;;;5026575;28;20195;-75
2023/12/03 06:00:52;;;;;;;160.45;60.45;;;;;;;;;;5028322;28;20091;-77
2023/12/03 06:03:20;;;;;;;179.23;62.17;;;;;;;;;;5027469;28;20029;-74
2023/12/03 06:05:46;;;;;;;175.75;60.58;;;;;;;;;;5007569;28;20029;-74
2023/12/03 06:08:12;;;;;;;184.23;62.72;;;;;;;;;;5026629;28;20052;-75
2023/12/03 06:10:38;;;;;;;171.68;59.83;;;;;;;;;;5020108;28;20025;-75
2023/12/03 06:13:05;;;;;;;181.95;63.03;;;;;;;;;;5028194;28;20027;-74
2023/12/03 06:15:31;;;;;;;166.95;59.63;;;;;;;;;;5026718;28;20033;-75
2023/12/03 06:17:57;;;;;;;179.45;61.10;;;;;;;;;;5011175;28;20036;-75
2023/12/03 06:20:23;;;;;;;178.68;61.08;;;;;;;;;;5024622;28;20072;-75
2023/12/03 06:22:50;;;;;;;173.43;61.90;;;;;;;;;;5027951;28;20108;-74
2023/12/03 06:25:16;;;;;;;173.57;61.25;;;;;;;;;;4997322;28;20025;-74
2023/12/03 06:27:44;;;;;;;180.55;60.75;;;;;;;;;;5013572;28;20045;-74
2023/12/03 06:30:10;;;;;;;187.98;63.65;;;;;;;;;;5031000;28;20018;-74
2023/12/03 06:32:36;;;;;;;189.35;63.25;;;;;;;;;;5031432;28;20572;-75
2023/12/03 06:35:04;;;;;;;201.20;66.80;;;;;;;;;;5031154;28;20025;-75
2023/12/03 06:37:30;;;;;;;193.88;64.15;;;;;;;;;;5031791;28;20033;-73
2023/12/03 06:39:56;;;;;;;219.35;69.90;;;;;;;;;;5029329;28;20021;-75
2023/12/03 06:42:22;;;;;;;198.55;66.43;;;;;;;;;;5031690;28;20488;-75
2023/12/03 06:44:48;;;;;;;195.85;65.07;;;;;;;;;;5031207;28;20041;-75
2023/12/03 06:47:15;;;;;;;197.75;69.28;;;;;;;;;;5031035;28;20029;-74
2023/12/03 06:49:42;;;;;;;213.68;67.55;;;;;;;;;;5030147;28;20025;-74
2023/12/03 06:52:08;;;;;;;198.73;67.22;;;;;;;;;;5030598;28;20038;-74
2023/12/03 06:54:34;;;;;;;210.02;68.88;;;;;;;;;;5030583;28;20025;-74
2023/12/03 06:57:00;;;;;;;202.63;66.28;;;;;;;;;;5015734;28;20051;-74
2023/12/03 06:59:26;;;;;;;212.45;68.78;;;;;;;;;;5029739;28;20033;-73
2023/12/03 07:01:53;;;;;;;208.85;65.25;;;;;;;;;;5015119;28;20301;-74
2023/12/03 07:04:19;;;;;;;217.07;68.47;;;;;;;;;;5013022;28;20049;-73
2023/12/03 07:06:45;;;;;;;205.35;65.38;;;;;;;;;;5029239;28;20036;-74
2023/12/03 07:09:11;;;;;;;230.77;68.72;;;;;;;;;;5011993;28;20045;-74
2023/12/03 07:11:38;;;;;;;217.77;71.80;;;;;;;;;;5030688;28;20049;-73
2023/12/03 07:14:04;;;;;;;228.45;72.72;;;;;;;;;;5029421;28;20109;-74
2023/12/03 07:16:30;;;;;;;251.98;72.68;;;;;;;;;;5030117;28;20037;-74
2023/12/03 07:18:56;;;;;;;213.70;69.97;;;;;;;;;;5011652;28;20056;-74
2023/12/03 07:21:22;;;;;;;239.07;75.72;;;;;;;;;;5029216;28;20120;-74
2023/12/03 07:23:48;;;;;;;230.60;74.32;;;;;;;;;;5030195;28;20095;-74
2023/12/03 07:26:15;;;;;;;237.85;74.07;;;;;;;;;;5030041;28;20116;-75
2023/12/03 07:28:42;;;;;;;234.05;73.13;;;;;;;;;;5011619;28;20049;-75
2023/12/03 07:31:09;;;;;;;228.77;72.20;;;;;;;;;;5029402;28;20194;-75
2023/12/03 07:33:35;;;;;;;228.27;68.15;;;;;;;;;;5028292;28;20033;-75
2023/12/03 07:36:01;;;;;;;217.00;71.07;;;;;;;;;;5011090;28;20115;-75
2023/12/03 07:38:28;;;;;;;219.48;70.82;;;;;;;;;;5028717;28;20376;-75
2023/12/03 07:40:55;;;;;;;226.60;68.00;;;;;;;;;;5028834;28;20087;-75
2023/12/03 07:43:21;;;;;;;211.43;68.05;;;;;;;;;;5012433;28;20041;-75
2023/12/03 07:45:48;;;;;;;230.50;70.60;;;;;;;;;;5010834;28;20391;-75
2023/12/03 07:48:14;;;;;;;220.25;69.07;;;;;;;;;;5007741;28;20042;-75
2023/12/03 07:50:40;;;;;;;222.23;70.80;;;;;;;;;;5022448;28;20045;-74
2023/12/03 07:53:06;;;;;;;231.43;72.68;;;;;;;;;;5028547;28;20026;-75
2023/12/03 07:55:33;;;;;;;232.82;70.55;;;;;;;;;;5010860;28;20692;-75
2023/12/03 07:57:59;;;;;;;237.32;71.90;;;;;;;;;;5027365;28;20025;-75
2023/12/03 08:00:25;;;;;;;233.38;71.13;;;;;;;;;;5027087;28;20048;-75
2023/12/03 08:02:51;;;;;;;233.10;74.80;;;;;;;;;;5029751;28;20099;-76
2023/12/03 08:05:18;;;;;;;237.25;73.70;;;;;;;;;;5027835;28;20112;-75
2023/12/03 08:07:44;;;;;;;229.38;67.93;;;;;;;;;;5029161;28;20117;-75
2023/12/03 08:10:10;;;;;;;222.23;69.63;;;;;;;;;;5029158;28;20029;-75
2023/12/03 08:12:36;;;;;;;239.75;71.85;;;;;;;;;;5016867;28;20398;-75
2023/12/03 08:15:02;;;;;;;214.30;68.18;;;;;;;;;;5028332;28;20034;-74
2023/12/03 08:17:28;;;;;;;221.27;69.03;;;;;;;;;;5029763;28;20017;-76
2023/12/03 08:19:54;;;;;;;219.63;67.90;;;;;;;;;;5019769;28;20068;-75
2023/12/03 08:22:21;;;;;;;214.38;69.95;;;;;;;;;;5029347;28;20036;-74
2023/12/03 08:24:50;;;;;;;200.13;66.55;;;;;;;;;;4994632;28;20028;-74
2023/12/03 08:27:16;;;;;;;199.43;68.95;;;;;;;;;;5011674;28;20029;-74
2023/12/03 08:29:42;;;;;;;201.75;66.75;;;;;;;;;;5028712;28;20037;-74
2023/12/03 08:32:08;;;;;;;202.32;65.32;;;;;;;;;;5025711;28;20075;-75
2023/12/03 08:34:35;;;;;;;178.68;63.58;;;;;;;;;;5012342;28;20036;-75
2023/12/03 08:37:01;;;;;;;175.60;61.15;;;;;;;;;;5030065;28;20048;-74
2023/12/03 08:39:27;;;;;;;178.07;60.85;;;;;;;;;;5017148;28;20017;-76
2023/12/03 08:41:53;;;;;;;170.70;58.30;;;;;;;;;;5024294;28;20033;-75
2023/12/03 08:44:19;;;;;;;162.80;58.60;;;;;;;;;;5009145;28;20045;-74
2023/12/03 08:46:45;;;;;;;174.75;59.08;;;;;;;;;;5025208;28;20069;-75
2023/12/03 08:49:11;;;;;;;148.63;56.08;;;;;;;;;;5022545;28;20539;-75
2023/12/03 08:51:38;;;;;;;146.40;56.75;;;;;;;;;;5014926;28;20072;-76
2023/12/03 08:54:04;;;;;;;151.95;53.88;;;;;;;;;;5018957;28;20675;-76
2023/12/03 08:56:31;;;;;;;142.05;54.33;;;;;;;;;;5027668;28;20041;-76
2023/12/03 08:58:57;;;;;;;146.90;52.58;;;;;;;;;;5010370;28;20029;-76
2023/12/03 09:01:23;;;;;;;141.02;53.85;;;;;;;;;;4999017;28;20069;-75
2023/12/03 09:03:49;;;;;;;143.05;51.20;;;;;;;;;;5026120;28;20025;-76
2023/12/03 09:06:17;;;;;;;126.95;50.90;;;;;;;;;;5017746;28;20512;-76
2023/12/03 09:08:43;;;;;;;132.98;49.88;;;;;;;;;;5028361;28;20522;-75
2023/12/03 09:11:09;;;;;;;127.80;49.70;;;;;;;;;;5029075;28;20060;-76
2023/12/03 09:13:35;;;;;;;115.43;48.50;;;;;;;;;;5027618;28;20101;-76
2023/12/03 09:16:02;;;;;;;112.93;45.03;;;;;;;;;;5028548;28;20029;-77
2023/12/03 09:18:28;;;;;;;103.05;43.50;;;;;;;;;;5010282;28;20084;-77
2023/12/03 09:20:54;;;;;;;104.15;41.08;;;;;;;;;;5028566;28;20033;-77
2023/12/03 09:23:20;;;;;;;97.13;40.97;;;;;;;;;;5025378;28;20029;-76
2023/12/03 09:25:46;;;;;;;91.03;40.08;;;;;;;;;;5010444;28;20033;-77
2023/12/03 09:28:12;;;;;;;90.07;39.58;;;;;;;;;;5014373;28;20043;-76
2023/12/03 09:30:39;;;;;;;87.35;36.83;;;;;;;;;;5024758;28;20030;-76
2023/12/03 09:33:05;;;;;;;80.40;35.97;;;;;;;;;;5030072;28;20072;-76
2023/12/03 09:35:32;;;;;;;81.55;35.33;;;;;;;;;;5028266;28;20080;-76
2023/12/03 09:37:58;;;;;;;81.97;37.13;;;;;;;;;;5028068;28;20041;-77
2023/12/03 09:40:25;;;;;;;73.38;34.03;;;;;;;;;;5029022;28;20116;-76
2023/12/03 09:42:52;;;;;;;77.68;35.30;;;;;;;;;;5028861;28;20037;-76
2023/12/03 09:45:19;;;;;;;69.47;32.47;;;;;;;;;;5027673;28;20402;-77
2023/12/03 09:47:51;;;;;;;71.10;32.80;;;;;;;;;;5010361;28;20040;-77
2023/12/03 09:50:18;;;;;;;73.53;31.63;;;;;;;;;;5009856;28;20492;-76
2023/12/03 09:52:47;;;;;;;68.60;29.05;;;;;;;;;;5022430;28;20034;-76
2023/12/03 09:55:14;;;;;;;68.35;28.77;;;;;;;;;;5026157;28;20049;-74
2023/12/03 09:57:42;;;;;;;61.72;29.70;;;;;;;;;;5024108;28;20030;-76
2023/12/03 10:00:08;;;;;;;58.63;27.30;;;;;;;;;;5031251;28;20113;-76
2023/12/03 10:02:37;;;;;;;58.20;28.75;;;;;;;;;;5027294;28;20053;-76
2023/12/03 10:05:03;;;;;;;57.83;26.55;;;;;;;;;;5010524;28;20034;-76
2023/12/03 10:07:30;;;;;;;49.85;23.63;;;;;;;;;;5013170;28;20029;-77
2023/12/03 10:10:00;;;;;;;57.40;26.52;;;;;;;;;;5029939;28;20398;-76
2023/12/03 10:12:32;;;;;;;55.38;26.13;;;;;;;;;;5030254;28;20036;-76
2023/12/03 10:14:59;;;;;;;48.63;23.65;;;;;;;;;;5015154;28;20036;-77
2023/12/03 10:17:25;;;;;;;52.10;24.35;;;;;;;;;;5029958;28;20422;-77
2023/12/03 10:19:51;;;;;;;48.90;22.40;;;;;;;;;;5012652;28;20037;-76
2023/12/03 10:22:17;;;;;;;45.78;22.42;;;;;;;;;;5012558;28;20037;-76
2023/12/03 10:24:47;;;;;;;48.97;22.95;;;;;;;;;;5028120;28;20026;-75
2023/12/03 10:27:14;;;;;;;41.40;18.45;;;;;;;;;;5012566;28;20156;-76
2023/12/03 10:29:40;;;;;;;50.10;23.85;;;;;;;;;;5027478;28;20046;-76
2023/12/03 10:32:07;;;;;;;50.88;24.17;;;;;;;;;;5029385;28;20041;-77
2023/12/03 10:34:33;;;;;;;43.08;22.20;;;;;;;;;;5030835;28;20033;-77
2023/12/03 10:37:02;;;;;;;46.25;22.88;;;;;;;;;;5029304;28;20034;-77
2023/12/03 10:39:30;;;;;;;99.20;50.20;;;;;;;;;;5030401;28;20053;-76
2023/12/03 10:41:57;;;;;;;78.60;43.55;;;;;;;;;;5026919;28;20191;-75
2023/12/03 10:44:24;;;;;;;112.82;64.22;;;;;;;;;;5031464;28;20045;-75
2023/12/03 10:46:50;;;;;;;102.28;51.85;;;;;;;;;;5031431;28;20498;-75
2023/12/03 10:49:17;;;;;;;47.08;23.77;;;;;;;;;;4996932;28;20545;-75
2023/12/03 10:51:43;;;;;;;47.45;21.98;;;;;;;;;;5027789;28;20033;-74
2023/12/03 10:54:13;;;;;;;42.00;20.52;;;;;;;;;;5011497;28;20033;-75
2023/12/03 10:56:40;;;;;;;41.45;21.67;;;;;;;;;;5030489;28;20033;-76
2023/12/03 10:59:09;;;;;;;41.88;20.48;;;;;;;;;;5030399;28;20024;-75
2023/12/03 11:01:39;;;;;;;41.28;19.65;;;;;;;;;;5031950;28;20048;-76
2023/12/03 11:04:15;;;;;;;57.92;26.58;;;;;;;;;;5029886;28;20033;-75
2023/12/03 11:06:42;;;;;;;57.70;27.50;;;;;;;;;;5029257;28;20482;-76
2023/12/03 11:09:08;;;;;;;46.15;22.73;;;;;;;;;;5029510;28;20032;-76
2023/12/03 11:11:35;;;;;;;50.63;24.92;;;;;;;;;;5029100;28;20545;-75
2023/12/03 11:14:01;;;;;;;37.53;19.77;;;;;;;;;;5029955;28;20075;-76
2023/12/03 11:16:33;;;;;;;36.28;18.45;;;;;;;;;;5011762;28;20136;-74
2023/12/03 11:19:03;;;;;;;36.95;17.85;;;;;;;;;;5010883;28;20064;-74
2023/12/03 11:21:48;;;;;;;33.42;16.80;;;;;;;;;;5029308;28;20037;-75
2023/12/03 11:24:33;;;;;;;36.25;17.90;;;;;;;;;;5027643;28;20026;-74
2023/12/03 11:27:00;;;;;;;36.47;16.73;;;;;;;;;;5027888;28;20025;-76
2023/12/03 11:29:54;;;;;;;34.97;17.58;;;;;;;;;;5012470;28;20095;-76
2023/12/03 11:32:21;;;;;;;56.03;22.83;;;;;;;;;;5025516;28;20124;-76
2023/12/03 11:34:59;;;;;;;44.60;21.30;;;;;;;;;;5009821;28;20113;-76
2023/12/03 11:37:27;;;;;;;60.60;24.38;;;;;;;;;;5028053;28;20436;-75
2023/12/03 11:39:55;;;;;;;48.38;21.10;;;;;;;;;;5028747;28;20030;-74
2023/12/03 11:42:23;;;;;;;44.13;21.52;;;;;;;;;;5028706;28;20168;-74
2023/12/03 11:44:49;;;;;;;43.58;21.02;;;;;;;;;;5011496;28;20029;-75
2023/12/03 11:47:16;;;;;;;40.55;19.65;;;;;;;;;;5011524;28;20517;-75
2023/12/03 11:49:43;;;;;;;40.17;19.85;;;;;;;;;;5028365;28;20132;-74
2023/12/03 11:52:09;;;;;;;38.45;18.77;;;;;;;;;;5011007;28;20426;-73
2023/12/03 11:54:42;;;;;;;41.17;19.50;;;;;;;;;;5026667;28;20041;-73
2023/12/03 11:57:14;;;;;;;40.55;19.10;;;;;;;;;;5012911;28;20049;-73
2023/12/03 11:59:44;;;;;;;36.05;18.90;;;;;;;;;;5029435;28;20130;-74
2023/12/03 12:02:10;;;;;;;44.13;20.67;;;;;;;;;;5028837;28;20025;-74
2023/12/03 12:04:36;;;;;;;55.05;24.63;;;;;;;;;;5011610;28;20037;-74
2023/12/03 12:07:16;;;;;;;44.97;20.52;;;;;;;;;;5025934;28;20052;-75
2023/12/03 12:09:43;;;;;;;43.33;21.75;;;;;;;;;;5010198;28;20034;-75
2023/12/03 12:12:09;;;;;;;37.20;19.00;;;;;;;;;;5011435;28;20025;-74
2023/12/03 12:14:35;;;;;;;43.22;20.20;;;;;;;;;;5028930;28;20438;-74
2023/12/03 12:17:03;;;;;;;35.90;18.30;;;;;;;;;;5028855;28;20045;-73
2023/12/03 12:19:29;;;;;;;38.35;18.85;;;;;;;;;;5007192;28;20183;-74
2023/12/03 12:21:56;;;;;;;37.25;18.08;;;;;;;;;;5027382;28;20072;-74
2023/12/03 12:24:23;;;;;;;32.60;17.65;;;;;;;;;;5029187;28;20041;-74
2023/12/03 12:26:49;;;;;;;35.75;18.15;;;;;;;;;;5027603;28;20438;-73
2023/12/03 12:29:17;;;;;;;39.28;18.42;;;;;;;;;;5011287;28;20513;-74
2023/12/03 12:31:43;;;;;;;33.08;17.27;;;;;;;;;;5028595;28;20045;-74
2023/12/03 12:34:12;;;;;;;36.42;19.02;;;;;;;;;;5029828;28;20033;-74
2023/12/03 12:36:40;;;;;;;35.45;17.90;;;;;;;;;;5029298;28;20358;-73
2023/12/03 12:39:06;;;;;;;36.05;17.88;;;;;;;;;;4993932;28;20065;-74
2023/12/03 12:41:39;;;;;;;43.67;19.65;;;;;;;;;;5028646;28;20107;-73
2023/12/03 12:44:05;;;;;;;35.53;17.45;;;;;;;;;;5028927;28;20445;-74
2023/12/03 12:46:33;;;;;;;37.25;19.05;;;;;;;;;;5028692;28;20042;-74
2023/12/03 12:49:13;;;;;;;34.15;18.42;;;;;;;;;;5028825;28;20048;-72
2023/12/03 12:51:39;;;;;;;37.35;18.92;;;;;;;;;;5027297;28;20087;-73
2023/12/03 12:54:07;;;;;;;50.00;23.80;;;;;;;;;;5026855;28;20029;-74
2023/12/03 12:56:33;;;;;;;44.00;21.23;;;;;;;;;;5010636;28;20057;-73
2023/12/03 12:59:00;;;;;;;45.70;21.52;;;;;;;;;;5024988;28;20036;-74
2023/12/03 13:01:28;;;;;;;121.82;63.45;;;;;;;;;;5029153;28;20041;-74
2023/12/03 13:03:56;;;;;;;66.15;37.95;;;;;;;;;;5028965;28;20033;-73
2023/12/03 13:06:22;;;;;;;57.30;31.95;;;;;;;;;;5010887;28;20034;-73
2023/12/03 13:08:48;;;;;;;38.90;19.63;;;;;;;;;;5026058;28;20080;-73
2023/12/03 13:11:15;;;;;;;33.80;17.38;;;;;;;;;;5010248;28;20053;-74
2023/12/03 13:13:41;;;;;;;34.88;17.80;;;;;;;;;;5028109;28;20422;-73
2023/12/03 13:16:07;;;;;;;29.35;15.63;;;;;;;;;;5028173;28;20068;-74
2023/12/03 13:18:36;;;;;;;33.28;16.05;;;;;;;;;;5026387;28;20041;-74
2023/12/03 13:21:02;;;;;;;29.05;13.98;;;;;;;;;;5026305;28;20041;-74
2023/12/03 13:23:28;;;;;;;29.05;14.95;;;;;;;;;;5026815;28;20041;-74
2023/12/03 13:25:54;;;;;;;28.05;14.45;;;;;;;;;;5010474;28;20037;-75
2023/12/03 13:28:20;;;;;;;29.23;14.70;;;;;;;;;;5028318;28;20111;-74
2023/12/03 13:30:47;;;;;;;31.05;14.50;;;;;;;;;;5024839;28;20021;-74
2023/12/03 13:33:13;;;;;;;28.42;14.88;;;;;;;;;;5026385;28;20103;-75
2023/12/03 13:35:39;;;;;;;28.17;14.85;;;;;;;;;;5027978;28;20084;-74
2023/12/03 13:38:05;;;;;;;32.78;16.65;;;;;;;;;;5022277;28;20041;-75
2023/12/03 13:40:32;;;;;;;32.17;17.85;;;;;;;;;;5026033;28;20056;-74
2023/12/03 13:42:58;;;;;;;35.78;17.77;;;;;;;;;;5027146;28;20245;-73
2023/12/03 13:45:24;;;;;;;34.92;17.48;;;;;;;;;;5025417;28;20108;-74
2023/12/03 13:47:50;;;;;;;29.02;14.88;;;;;;;;;;5022979;28;20025;-75
2023/12/03 13:50:16;;;;;;;33.58;16.92;;;;;;;;;;5027971;28;20030;-73
2023/12/03 13:52:43;;;;;;;30.67;15.48;;;;;;;;;;5027663;28;20398;-74
2023/12/03 13:55:09;;;;;;;32.85;16.05;;;;;;;;;;5008105;28;20091;-74
2023/12/03 13:57:37;;;;;;;32.55;15.85;;;;;;;;;;5020336;28;20442;-74
2023/12/03 14:00:05;;;;;;;32.00;15.05;;;;;;;;;;5027228;28;20263;-73
2023/12/03 14:02:38;;;;;;;32.40;15.60;;;;;;;;;;5028864;28;20033;-73
2023/12/03 14:05:04;;;;;;;30.17;16.17;;;;;;;;;;5023198;28;20025;-73
2023/12/03 14:07:31;;;;;;;29.67;16.10;;;;;;;;;;5025667;28;20071;-73